sensor_id;sensor_type;location;lat;lon;timestamp;P1;durP1;ratioP1;P2;durP2;ratioP2
27670;SDS011;15077;49.704;9.908;2022-08-05T00:01:14;1.70;;;0.80;;
27670;SDS011;15077;49.704;9.908;2022-08-05T00:03:42;0.75;;;0.65;;
27670;SDS011;15077;49.704;9.908;2022-08-05T00:06:09;1.20;;;0.77;;
27670;SDS011;15077;49.704;9.908;2022-08-05T00:08:35;1.27;;;0.82;;
27670;SDS011;15077;49.704;9.908;2022-08-05T00:11:04;1.85;;;1.20;;
27670;SDS011;15077;49.704;9.908;2022-08-05T00:13:34;1.23;;;0.80;;
27670;SDS011;15077;49.704;9.908;2022-08-05T00:16:02;1.23;;;1.02;;
27670;SDS011;15077;49.704;9.908;2022-08-05T00:18:29;0.90;;;0.70;;
27670;SDS011;15077;49.704;9.908;2022-08-05T00:20:55;1.10;;;0.90;;
27670;SDS011;15077;49.704;9.908;2022-08-05T00:23:22;0.63;;;0.60;;
27670;SDS011;15077;49.704;9.908;2022-08-05T00:25:48;0.90;;;0.55;;
27670;SDS011;15077;49.704;9.908;2022-08-05T00:28:15;1.48;;;0.77;;
27670;SDS011;15077;49.704;9.908;2022-08-05T00:30:41;0.88;;;0.65;;
27670;SDS011;15077;49.704;9.908;2022-08-05T00:33:07;0.85;;;0.60;;
27670;SDS011;15077;49.704;9.908;2022-08-05T00:35:33;1.77;;;0.80;;
27670;SDS011;15077;49.704;9.908;2022-08-05T00:38:00;2.25;;;0.70;;
27670;SDS011;15077;49.704;9.908;2022-08-05T00:40:26;1.58;;;1.02;;
27670;SDS011;15077;49.704;9.908;2022-08-05T00:42:53;0.80;;;0.65;;
27670;SDS011;15077;49.704;9.908;2022-08-05T00:45:23;2.10;;;1.08;;
27670;SDS011;15077;49.704;9.908;2022-08-05T00:47:50;1.33;;;1.13;;
27670;SDS011;15077;49.704;9.908;2022-08-05T00:50:16;0.90;;;0.70;;
27670;SDS011;15077;49.704;9.908;2022-08-05T00:52:42;1.02;;;0.82;;
27670;SDS011;15077;49.704;9.908;2022-08-05T00:55:08;1.85;;;1.00;;
27670;SDS011;15077;49.704;9.908;2022-08-05T00:57:34;1.00;;;0.70;;
27670;SDS011;15077;49.704;9.908;2022-08-05T00:59:59;1.42;;;0.80;;
27670;SDS011;15077;49.704;9.908;2022-08-05T01:02:25;1.00;;;0.63;;
27670;SDS011;15077;49.704;9.908;2022-08-05T01:04:51;1.35;;;0.60;;
27670;SDS011;15077;49.704;9.908;2022-08-05T01:07:17;2.00;;;1.00;;
27670;SDS011;15077;49.704;9.908;2022-08-05T01:09:42;1.27;;;0.85;;
27670;SDS011;15077;49.704;9.908;2022-08-05T01:12:10;1.27;;;0.90;;
27670;SDS011;15077;49.704;9.908;2022-08-05T01:14:49;1.08;;;0.68;;
27670;SDS011;15077;49.704;9.908;2022-08-05T01:17:37;1.77;;;0.68;;
27670;SDS011;15077;49.704;9.908;2022-08-05T01:29:03;0.70;;;0.63;;
27670;SDS011;15077;49.704;9.908;2022-08-05T01:37:11;0.95;;;0.90;;
27670;SDS011;15077;49.704;9.908;2022-08-05T01:39:43;1.15;;;1.05;;
27670;SDS011;15077;49.704;9.908;2022-08-05T01:42:13;3.90;;;1.40;;
27670;SDS011;15077;49.704;9.908;2022-08-05T01:44:44;2.28;;;1.65;;
27670;SDS011;15077;49.704;9.908;2022-08-05T01:47:13;1.98;;;1.65;;
27670;SDS011;15077;49.704;9.908;2022-08-05T01:49:43;3.22;;;2.22;;
27670;SDS011;15077;49.704;9.908;2022-08-05T01:52:14;2.35;;;1.90;;
27670;SDS011;15077;49.704;9.908;2022-08-05T01:54:45;2.10;;;1.90;;
27670;SDS011;15077;49.704;9.908;2022-08-05T01:57:19;2.55;;;2.10;;
27670;SDS011;15077;49.704;9.908;2022-08-05T01:59:53;3.03;;;2.10;;
27670;SDS011;15077;49.704;9.908;2022-08-05T02:02:24;4.40;;;2.13;;
27670;SDS011;15077;49.704;9.908;2022-08-05T02:04:52;3.72;;;2.75;;
27670;SDS011;15077;49.704;9.908;2022-08-05T02:07:22;5.38;;;2.47;;
27670;SDS011;15077;49.704;9.908;2022-08-05T02:09:48;2.20;;;1.92;;
27670;SDS011;15077;49.704;9.908;2022-08-05T02:14:52;3.15;;;2.38;;
27670;SDS011;15077;49.704;9.908;2022-08-05T02:20:23;5.65;;;2.33;;
27670;SDS011;15077;49.704;9.908;2022-08-05T02:22:57;7.30;;;2.60;;
27670;SDS011;15077;49.704;9.908;2022-08-05T02:25:33;3.78;;;2.00;;
27670;SDS011;15077;49.704;9.908;2022-08-05T02:28:04;2.72;;;1.90;;
27670;SDS011;15077;49.704;9.908;2022-08-05T02:30:38;2.90;;;1.98;;
27670;SDS011;15077;49.704;9.908;2022-08-05T02:33:17;3.95;;;1.90;;
27670;SDS011;15077;49.704;9.908;2022-08-05T02:35:46;3.97;;;2.10;;
27670;SDS011;15077;49.704;9.908;2022-08-05T02:38:14;3.45;;;1.98;;
27670;SDS011;15077;49.704;9.908;2022-08-05T02:40:42;2.10;;;1.52;;
27670;SDS011;15077;49.704;9.908;2022-08-05T02:43:10;5.03;;;1.67;;
27670;SDS011;15077;49.704;9.908;2022-08-05T02:45:41;4.07;;;1.42;;
27670;SDS011;15077;49.704;9.908;2022-08-05T02:48:08;1.90;;;1.40;;
27670;SDS011;15077;49.704;9.908;2022-08-05T02:50:35;2.10;;;1.52;;
27670;SDS011;15077;49.704;9.908;2022-08-05T02:53:02;2.40;;;1.52;;
27670;SDS011;15077;49.704;9.908;2022-08-05T02:55:30;1.52;;;1.35;;
27670;SDS011;15077;49.704;9.908;2022-08-05T02:57:58;2.63;;;1.90;;
27670;SDS011;15077;49.704;9.908;2022-08-05T03:00:25;4.63;;;2.35;;
27670;SDS011;15077;49.704;9.908;2022-08-05T03:02:53;4.20;;;1.70;;
27670;SDS011;15077;49.704;9.908;2022-08-05T03:05:21;1.80;;;1.20;;
27670;SDS011;15077;49.704;9.908;2022-08-05T03:07:47;2.20;;;1.58;;
27670;SDS011;15077;49.704;9.908;2022-08-05T03:10:14;3.92;;;1.20;;
27670;SDS011;15077;49.704;9.908;2022-08-05T03:12:41;2.53;;;1.60;;
27670;SDS011;15077;49.704;9.908;2022-08-05T03:15:08;2.40;;;1.50;;
27670;SDS011;15077;49.704;9.908;2022-08-05T03:17:35;3.08;;;2.20;;
27670;SDS011;15077;49.704;9.908;2022-08-05T03:20:02;2.38;;;2.10;;
27670;SDS011;15077;49.704;9.908;2022-08-05T03:22:29;2.65;;;1.50;;
27670;SDS011;15077;49.704;9.908;2022-08-05T03:24:55;2.95;;;1.20;;
27670;SDS011;15077;49.704;9.908;2022-08-05T03:27:22;2.35;;;1.60;;
27670;SDS011;15077;49.704;9.908;2022-08-05T03:29:48;3.55;;;2.53;;
27670;SDS011;15077;49.704;9.908;2022-08-05T03:32:15;4.63;;;2.00;;
27670;SDS011;15077;49.704;9.908;2022-08-05T03:34:43;3.00;;;2.03;;
27670;SDS011;15077;49.704;9.908;2022-08-05T03:37:10;2.72;;;2.20;;
27670;SDS011;15077;49.704;9.908;2022-08-05T03:39:36;2.78;;;1.60;;
27670;SDS011;15077;49.704;9.908;2022-08-05T03:42:02;3.08;;;1.75;;
27670;SDS011;15077;49.704;9.908;2022-08-05T03:44:28;1.98;;;1.30;;
27670;SDS011;15077;49.704;9.908;2022-08-05T03:46:54;2.80;;;1.20;;
27670;SDS011;15077;49.704;9.908;2022-08-05T03:49:20;2.30;;;1.50;;
27670;SDS011;15077;49.704;9.908;2022-08-05T03:54:33;1.15;;;0.75;;
27670;SDS011;15077;49.704;9.908;2022-08-05T03:57:07;1.30;;;0.90;;
27670;SDS011;15077;49.704;9.908;2022-08-05T03:59:39;1.13;;;0.90;;
27670;SDS011;15077;49.704;9.908;2022-08-05T04:04:36;2.40;;;1.10;;
27670;SDS011;15077;49.704;9.908;2022-08-05T04:07:04;2.05;;;1.10;;
27670;SDS011;15077;49.704;9.908;2022-08-05T04:09:31;1.95;;;1.13;;
27670;SDS011;15077;49.704;9.908;2022-08-05T04:11:57;1.30;;;0.90;;
27670;SDS011;15077;49.704;9.908;2022-08-05T04:14:24;2.80;;;0.80;;
27670;SDS011;15077;49.704;9.908;2022-08-05T04:16:51;1.88;;;0.90;;
27670;SDS011;15077;49.704;9.908;2022-08-05T04:19:18;1.75;;;1.10;;
27670;SDS011;15077;49.704;9.908;2022-08-05T04:21:44;1.30;;;0.93;;
27670;SDS011;15077;49.704;9.908;2022-08-05T04:24:10;2.55;;;1.40;;
27670;SDS011;15077;49.704;9.908;2022-08-05T04:26:36;2.00;;;1.20;;
27670;SDS011;15077;49.704;9.908;2022-08-05T04:29:02;1.48;;;1.15;;
27670;SDS011;15077;49.704;9.908;2022-08-05T04:31:28;3.03;;;1.00;;
27670;SDS011;15077;49.704;9.908;2022-08-05T04:33:54;1.23;;;0.82;;
27670;SDS011;15077;49.704;9.908;2022-08-05T04:36:19;2.95;;;1.05;;
27670;SDS011;15077;49.704;9.908;2022-08-05T04:38:45;1.40;;;0.90;;
27670;SDS011;15077;49.704;9.908;2022-08-05T04:41:11;3.75;;;1.20;;
27670;SDS011;15077;49.704;9.908;2022-08-05T04:43:37;3.83;;;1.15;;
27670;SDS011;15077;49.704;9.908;2022-08-05T04:46:04;2.42;;;1.60;;
27670;SDS011;15077;49.704;9.908;2022-08-05T04:48:30;2.00;;;1.80;;
27670;SDS011;15077;49.704;9.908;2022-08-05T04:50:56;3.35;;;1.65;;
27670;SDS011;15077;49.704;9.908;2022-08-05T04:53:22;5.65;;;2.10;;
27670;SDS011;15077;49.704;9.908;2022-08-05T04:55:48;2.15;;;1.70;;
27670;SDS011;15077;49.704;9.908;2022-08-05T04:58:15;2.65;;;1.90;;
27670;SDS011;15077;49.704;9.908;2022-08-05T05:00:42;3.70;;;1.75;;
27670;SDS011;15077;49.704;9.908;2022-08-05T05:03:08;2.33;;;1.60;;
27670;SDS011;15077;49.704;9.908;2022-08-05T05:05:35;3.83;;;2.15;;
27670;SDS011;15077;49.704;9.908;2022-08-05T05:10:36;2.25;;;1.30;;
27670;SDS011;15077;49.704;9.908;2022-08-05T05:13:10;3.08;;;1.38;;
27670;SDS011;15077;49.704;9.908;2022-08-05T05:15:38;5.70;;;1.80;;
27670;SDS011;15077;49.704;9.908;2022-08-05T05:18:06;2.20;;;1.38;;
27670;SDS011;15077;49.704;9.908;2022-08-05T05:20:33;2.42;;;1.55;;
27670;SDS011;15077;49.704;9.908;2022-08-05T05:23:00;2.78;;;1.80;;
27670;SDS011;15077;49.704;9.908;2022-08-05T05:25:30;2.22;;;1.48;;
27670;SDS011;15077;49.704;9.908;2022-08-05T05:27:56;2.42;;;1.38;;
27670;SDS011;15077;49.704;9.908;2022-08-05T05:30:22;3.47;;;1.70;;
27670;SDS011;15077;49.704;9.908;2022-08-05T05:32:48;3.40;;;1.30;;
27670;SDS011;15077;49.704;9.908;2022-08-05T05:35:15;2.40;;;1.80;;
27670;SDS011;15077;49.704;9.908;2022-08-05T05:37:50;2.33;;;1.40;;
27670;SDS011;15077;49.704;9.908;2022-08-05T05:40:20;2.20;;;1.55;;
27670;SDS011;15077;49.704;9.908;2022-08-05T05:42:48;1.90;;;1.33;;
27670;SDS011;15077;49.704;9.908;2022-08-05T05:45:15;3.30;;;1.80;;
27670;SDS011;15077;49.704;9.908;2022-08-05T05:47:41;1.88;;;1.60;;
27670;SDS011;15077;49.704;9.908;2022-08-05T05:50:09;1.63;;;1.33;;
27670;SDS011;15077;49.704;9.908;2022-08-05T05:52:37;2.28;;;1.33;;
27670;SDS011;15077;49.704;9.908;2022-08-05T05:55:04;2.03;;;1.60;;
27670;SDS011;15077;49.704;9.908;2022-08-05T05:57:33;2.33;;;1.30;;
27670;SDS011;15077;49.704;9.908;2022-08-05T06:00:00;2.28;;;1.30;;
27670;SDS011;15077;49.704;9.908;2022-08-05T06:02:26;1.75;;;1.50;;
27670;SDS011;15077;49.704;9.908;2022-08-05T06:04:52;2.38;;;1.23;;
27670;SDS011;15077;49.704;9.908;2022-08-05T06:07:18;5.07;;;1.92;;
27670;SDS011;15077;49.704;9.908;2022-08-05T06:09:44;2.53;;;1.52;;
27670;SDS011;15077;49.704;9.908;2022-08-05T06:12:09;2.22;;;0.95;;
27670;SDS011;15077;49.704;9.908;2022-08-05T06:14:35;3.38;;;1.60;;
27670;SDS011;15077;49.704;9.908;2022-08-05T06:17:01;2.72;;;1.75;;
27670;SDS011;15077;49.704;9.908;2022-08-05T06:19:28;2.38;;;1.90;;
27670;SDS011;15077;49.704;9.908;2022-08-05T06:21:54;3.47;;;1.55;;
27670;SDS011;15077;49.704;9.908;2022-08-05T06:24:19;2.42;;;1.48;;
27670;SDS011;15077;49.704;9.908;2022-08-05T06:26:45;4.15;;;1.50;;
27670;SDS011;15077;49.704;9.908;2022-08-05T06:29:11;2.50;;;1.90;;
27670;SDS011;15077;49.704;9.908;2022-08-05T06:31:37;2.25;;;1.40;;
27670;SDS011;15077;49.704;9.908;2022-08-05T06:34:03;1.88;;;1.42;;
27670;SDS011;15077;49.704;9.908;2022-08-05T06:36:29;2.38;;;1.40;;
27670;SDS011;15077;49.704;9.908;2022-08-05T06:38:55;3.03;;;1.67;;
27670;SDS011;15077;49.704;9.908;2022-08-05T06:41:21;2.65;;;1.23;;
27670;SDS011;15077;49.704;9.908;2022-08-05T06:43:47;1.65;;;1.27;;
27670;SDS011;15077;49.704;9.908;2022-08-05T06:46:13;2.33;;;1.45;;
27670;SDS011;15077;49.704;9.908;2022-08-05T06:48:40;2.03;;;1.55;;
27670;SDS011;15077;49.704;9.908;2022-08-05T06:51:05;2.00;;;1.30;;
27670;SDS011;15077;49.704;9.908;2022-08-05T06:53:32;2.60;;;1.65;;
27670;SDS011;15077;49.704;9.908;2022-08-05T06:55:59;1.63;;;1.33;;
27670;SDS011;15077;49.704;9.908;2022-08-05T06:58:27;1.88;;;1.60;;
27670;SDS011;15077;49.704;9.908;2022-08-05T07:00:54;1.77;;;1.25;;
27670;SDS011;15077;49.704;9.908;2022-08-05T07:03:23;2.17;;;1.77;;
27670;SDS011;15077;49.704;9.908;2022-08-05T07:05:48;1.90;;;1.60;;
27670;SDS011;15077;49.704;9.908;2022-08-05T07:08:14;2.75;;;1.60;;
27670;SDS011;15077;49.704;9.908;2022-08-05T07:10:40;2.55;;;1.75;;
27670;SDS011;15077;49.704;9.908;2022-08-05T07:13:06;1.95;;;1.40;;
27670;SDS011;15077;49.704;9.908;2022-08-05T07:15:50;2.42;;;1.50;;
27670;SDS011;15077;49.704;9.908;2022-08-05T07:18:34;1.65;;;1.10;;
27670;SDS011;15077;49.704;9.908;2022-08-05T07:21:00;2.28;;;1.15;;
27670;SDS011;15077;49.704;9.908;2022-08-05T07:23:27;2.10;;;1.02;;
27670;SDS011;15077;49.704;9.908;2022-08-05T07:25:52;2.92;;;1.10;;
27670;SDS011;15077;49.704;9.908;2022-08-05T07:28:18;1.70;;;1.35;;
27670;SDS011;15077;49.704;9.908;2022-08-05T07:30:44;1.80;;;1.40;;
27670;SDS011;15077;49.704;9.908;2022-08-05T07:33:10;2.10;;;1.20;;
27670;SDS011;15077;49.704;9.908;2022-08-05T07:35:37;1.92;;;1.20;;
27670;SDS011;15077;49.704;9.908;2022-08-05T07:38:04;1.98;;;1.58;;
27670;SDS011;15077;49.704;9.908;2022-08-05T07:40:30;2.60;;;1.50;;
27670;SDS011;15077;49.704;9.908;2022-08-05T07:42:56;1.52;;;1.35;;
27670;SDS011;15077;49.704;9.908;2022-08-05T07:45:22;2.25;;;1.27;;
27670;SDS011;15077;49.704;9.908;2022-08-05T07:47:48;2.47;;;1.63;;
27670;SDS011;15077;49.704;9.908;2022-08-05T07:50:14;2.33;;;1.45;;
27670;SDS011;15077;49.704;9.908;2022-08-05T07:52:40;2.70;;;1.55;;
27670;SDS011;15077;49.704;9.908;2022-08-05T07:55:07;1.70;;;1.40;;
27670;SDS011;15077;49.704;9.908;2022-08-05T07:57:35;4.15;;;1.50;;
27670;SDS011;15077;49.704;9.908;2022-08-05T08:00:01;1.98;;;1.45;;
27670;SDS011;15077;49.704;9.908;2022-08-05T08:02:30;1.73;;;1.30;;
27670;SDS011;15077;49.704;9.908;2022-08-05T08:04:56;2.78;;;1.13;;
27670;SDS011;15077;49.704;9.908;2022-08-05T08:07:23;1.25;;;1.00;;
27670;SDS011;15077;49.704;9.908;2022-08-05T08:09:51;1.23;;;0.98;;
27670;SDS011;15077;49.704;9.908;2022-08-05T08:12:17;2.35;;;1.23;;
27670;SDS011;15077;49.704;9.908;2022-08-05T08:14:43;1.35;;;1.02;;
27670;SDS011;15077;49.704;9.908;2022-08-05T08:17:09;1.10;;;0.98;;
27670;SDS011;15077;49.704;9.908;2022-08-05T08:19:36;1.40;;;0.98;;
27670;SDS011;15077;49.704;9.908;2022-08-05T08:22:03;1.65;;;0.77;;
27670;SDS011;15077;49.704;9.908;2022-08-05T08:24:31;1.20;;;0.80;;
27670;SDS011;15077;49.704;9.908;2022-08-05T08:26:57;1.98;;;1.55;;
27670;SDS011;15077;49.704;9.908;2022-08-05T08:29:23;1.98;;;1.50;;
27670;SDS011;15077;49.704;9.908;2022-08-05T08:31:49;1.70;;;1.25;;
27670;SDS011;15077;49.704;9.908;2022-08-05T08:34:20;1.70;;;1.33;;
27670;SDS011;15077;49.704;9.908;2022-08-05T08:36:49;2.00;;;1.00;;
27670;SDS011;15077;49.704;9.908;2022-08-05T08:39:15;1.40;;;1.00;;
27670;SDS011;15077;49.704;9.908;2022-08-05T08:41:43;1.75;;;1.52;;
27670;SDS011;15077;49.704;9.908;2022-08-05T08:44:14;1.20;;;1.00;;
27670;SDS011;15077;49.704;9.908;2022-08-05T08:46:43;2.15;;;1.23;;
27670;SDS011;15077;49.704;9.908;2022-08-05T08:49:12;1.75;;;1.50;;
27670;SDS011;15077;49.704;9.908;2022-08-05T08:51:40;2.13;;;1.77;;
27670;SDS011;15077;49.704;9.908;2022-08-05T08:54:12;2.63;;;1.75;;
27670;SDS011;15077;49.704;9.908;2022-08-05T08:56:38;1.50;;;1.30;;
27670;SDS011;15077;49.704;9.908;2022-08-05T08:59:06;3.00;;;1.45;;
27670;SDS011;15077;49.704;9.908;2022-08-05T09:01:32;2.10;;;1.50;;
27670;SDS011;15077;49.704;9.908;2022-08-05T09:03:58;2.47;;;1.60;;
27670;SDS011;15077;49.704;9.908;2022-08-05T09:06:28;2.28;;;1.40;;
27670;SDS011;15077;49.704;9.908;2022-08-05T09:08:56;2.17;;;1.80;;
27670;SDS011;15077;49.704;9.908;2022-08-05T09:11:24;2.70;;;1.58;;
27670;SDS011;15077;49.704;9.908;2022-08-05T09:13:50;1.75;;;1.33;;
27670;SDS011;15077;49.704;9.908;2022-08-05T09:16:18;2.13;;;1.50;;
27670;SDS011;15077;49.704;9.908;2022-08-05T09:18:44;2.05;;;1.65;;
27670;SDS011;15077;49.704;9.908;2022-08-05T09:21:10;3.63;;;1.52;;
27670;SDS011;15077;49.704;9.908;2022-08-05T09:23:35;2.58;;;1.80;;
27670;SDS011;15077;49.704;9.908;2022-08-05T09:26:06;3.08;;;1.83;;
27670;SDS011;15077;49.704;9.908;2022-08-05T09:28:37;2.13;;;1.63;;
27670;SDS011;15077;49.704;9.908;2022-08-05T09:31:09;1.83;;;1.27;;
27670;SDS011;15077;49.704;9.908;2022-08-05T09:36:18;1.63;;;1.50;;
27670;SDS011;15077;49.704;9.908;2022-08-05T09:38:58;1.85;;;1.48;;
27670;SDS011;15077;49.704;9.908;2022-08-05T09:41:28;1.55;;;1.38;;
27670;SDS011;15077;49.704;9.908;2022-08-05T09:43:53;2.05;;;1.45;;
27670;SDS011;15077;49.704;9.908;2022-08-05T09:46:23;2.80;;;1.55;;
27670;SDS011;15077;49.704;9.908;2022-08-05T09:48:54;1.67;;;1.38;;
27670;SDS011;15077;49.704;9.908;2022-08-05T09:51:29;2.00;;;1.63;;
27670;SDS011;15077;49.704;9.908;2022-08-05T09:54:04;2.93;;;1.30;;
27670;SDS011;15077;49.704;9.908;2022-08-05T09:56:33;2.42;;;1.27;;
27670;SDS011;15077;49.704;9.908;2022-08-05T10:01:34;1.45;;;0.82;;
27670;SDS011;15077;49.704;9.908;2022-08-05T10:04:09;1.77;;;1.45;;
27670;SDS011;15077;49.704;9.908;2022-08-05T10:06:41;1.50;;;1.20;;
27670;SDS011;15077;49.704;9.908;2022-08-05T10:09:19;2.05;;;1.00;;
27670;SDS011;15077;49.704;9.908;2022-08-05T10:11:46;1.30;;;1.20;;
27670;SDS011;15077;49.704;9.908;2022-08-05T10:14:28;1.95;;;1.10;;
27670;SDS011;15077;49.704;9.908;2022-08-05T10:16:55;1.77;;;1.10;;
27670;SDS011;15077;49.704;9.908;2022-08-05T10:19:37;1.42;;;0.98;;
27670;SDS011;15077;49.704;9.908;2022-08-05T10:22:03;1.38;;;1.10;;
27670;SDS011;15077;49.704;9.908;2022-08-05T10:24:29;1.40;;;1.30;;
27670;SDS011;15077;49.704;9.908;2022-08-05T10:26:57;1.40;;;1.10;;
27670;SDS011;15077;49.704;9.908;2022-08-05T10:29:24;1.13;;;0.85;;
27670;SDS011;15077;49.704;9.908;2022-08-05T10:31:51;2.55;;;1.35;;
27670;SDS011;15077;49.704;9.908;2022-08-05T10:34:17;1.98;;;1.40;;
27670;SDS011;15077;49.704;9.908;2022-08-05T10:36:43;1.25;;;1.08;;
27670;SDS011;15077;49.704;9.908;2022-08-05T10:39:17;1.50;;;1.23;;
27670;SDS011;15077;49.704;9.908;2022-08-05T10:41:57;1.98;;;1.48;;
27670;SDS011;15077;49.704;9.908;2022-08-05T10:44:35;1.25;;;1.10;;
27670;SDS011;15077;49.704;9.908;2022-08-05T10:47:12;1.38;;;0.98;;
27670;SDS011;15077;49.704;9.908;2022-08-05T10:52:43;1.58;;;1.30;;
27670;SDS011;15077;49.704;9.908;2022-08-05T10:55:16;1.52;;;1.20;;
27670;SDS011;15077;49.704;9.908;2022-08-05T10:57:42;1.75;;;1.25;;
27670;SDS011;15077;49.704;9.908;2022-08-05T11:05:31;1.40;;;1.20;;
27670;SDS011;15077;49.704;9.908;2022-08-05T11:07:59;2.42;;;1.00;;
27670;SDS011;15077;49.704;9.908;2022-08-05T11:10:28;1.92;;;1.25;;
27670;SDS011;15077;49.704;9.908;2022-08-05T11:12:56;1.50;;;1.30;;
27670;SDS011;15077;49.704;9.908;2022-08-05T11:20:56;1.60;;;1.30;;
27670;SDS011;15077;49.704;9.908;2022-08-05T11:28:46;2.45;;;1.30;;
27670;SDS011;15077;49.704;9.908;2022-08-05T11:31:21;2.50;;;0.90;;
27670;SDS011;15077;49.704;9.908;2022-08-05T11:33:56;2.67;;;1.20;;
27670;SDS011;15077;49.704;9.908;2022-08-05T11:42:22;1.48;;;1.38;;
27670;SDS011;15077;49.704;9.908;2022-08-05T11:44:49;1.95;;;0.98;;
27670;SDS011;15077;49.704;9.908;2022-08-05T11:47:19;1.80;;;1.17;;
27670;SDS011;15077;49.704;9.908;2022-08-05T11:49:53;1.70;;;1.35;;
27670;SDS011;15077;49.704;9.908;2022-08-05T11:52:27;2.47;;;1.80;;
27670;SDS011;15077;49.704;9.908;2022-08-05T11:54:53;1.45;;;1.10;;
27670;SDS011;15077;49.704;9.908;2022-08-05T11:57:19;1.33;;;1.00;;
27670;SDS011;15077;49.704;9.908;2022-08-05T11:59:45;1.65;;;1.30;;
27670;SDS011;15077;49.704;9.908;2022-08-05T12:02:11;1.40;;;1.00;;
27670;SDS011;15077;49.704;9.908;2022-08-05T12:07:08;1.70;;;1.48;;
27670;SDS011;15077;49.704;9.908;2022-08-05T12:09:37;1.48;;;1.38;;
27670;SDS011;15077;49.704;9.908;2022-08-05T12:12:06;2.03;;;1.40;;
27670;SDS011;15077;49.704;9.908;2022-08-05T12:14:42;1.55;;;1.17;;
27670;SDS011;15077;49.704;9.908;2022-08-05T12:17:12;1.77;;;1.13;;
27670;SDS011;15077;49.704;9.908;2022-08-05T12:19:40;1.95;;;0.80;;
27670;SDS011;15077;49.704;9.908;2022-08-05T12:22:16;0.90;;;0.80;;
27670;SDS011;15077;49.704;9.908;2022-08-05T12:24:45;1.50;;;1.00;;
27670;SDS011;15077;49.704;9.908;2022-08-05T12:27:24;1.33;;;1.08;;
27670;SDS011;15077;49.704;9.908;2022-08-05T12:32:45;1.30;;;0.88;;
27670;SDS011;15077;49.704;9.908;2022-08-05T12:37:45;1.38;;;1.10;;
27670;SDS011;15077;49.704;9.908;2022-08-05T12:40:11;1.15;;;1.02;;
27670;SDS011;15077;49.704;9.908;2022-08-05T12:42:39;1.10;;;1.00;;
27670;SDS011;15077;49.704;9.908;2022-08-05T12:45:06;1.48;;;0.98;;
27670;SDS011;15077;49.704;9.908;2022-08-05T12:47:33;1.05;;;0.90;;
27670;SDS011;15077;49.704;9.908;2022-08-05T12:50:10;1.73;;;1.02;;
27670;SDS011;15077;49.704;9.908;2022-08-05T12:52:39;4.90;;;1.77;;
27670;SDS011;15077;49.704;9.908;2022-08-05T12:55:21;1.40;;;1.20;;
27670;SDS011;15077;49.704;9.908;2022-08-05T12:57:51;1.65;;;1.10;;
27670;SDS011;15077;49.704;9.908;2022-08-05T13:00:20;1.10;;;0.93;;
27670;SDS011;15077;49.704;9.908;2022-08-05T13:02:48;1.20;;;1.02;;
27670;SDS011;15077;49.704;9.908;2022-08-05T13:05:16;1.40;;;1.10;;
27670;SDS011;15077;49.704;9.908;2022-08-05T13:07:42;1.17;;;1.05;;
27670;SDS011;15077;49.704;9.908;2022-08-05T13:10:11;1.33;;;1.10;;
27670;SDS011;15077;49.704;9.908;2022-08-05T13:12:40;1.67;;;1.15;;
27670;SDS011;15077;49.704;9.908;2022-08-05T13:15:09;1.20;;;1.00;;
27670;SDS011;15077;49.704;9.908;2022-08-05T13:17:37;1.85;;;1.30;;
27670;SDS011;15077;49.704;9.908;2022-08-05T13:20:04;1.65;;;1.13;;
27670;SDS011;15077;49.704;9.908;2022-08-05T13:22:47;1.80;;;1.30;;
27670;SDS011;15077;49.704;9.908;2022-08-05T13:25:18;2.03;;;1.48;;
27670;SDS011;15077;49.704;9.908;2022-08-05T13:27:54;1.40;;;1.20;;
27670;SDS011;15077;49.704;9.908;2022-08-05T13:30:21;2.03;;;1.40;;
27670;SDS011;15077;49.704;9.908;2022-08-05T13:32:49;2.92;;;1.58;;
27670;SDS011;15077;49.704;9.908;2022-08-05T13:35:17;2.20;;;1.50;;
27670;SDS011;15077;49.704;9.908;2022-08-05T13:37:44;2.95;;;1.20;;
27670;SDS011;15077;49.704;9.908;2022-08-05T13:40:11;1.52;;;1.20;;
27670;SDS011;15077;49.704;9.908;2022-08-05T13:42:38;1.70;;;1.15;;
27670;SDS011;15077;49.704;9.908;2022-08-05T13:45:05;1.40;;;1.00;;
27670;SDS011;15077;49.704;9.908;2022-08-05T13:47:32;1.52;;;1.27;;
27670;SDS011;15077;49.704;9.908;2022-08-05T13:49:58;2.17;;;1.38;;
27670;SDS011;15077;49.704;9.908;2022-08-05T13:52:27;1.73;;;1.63;;
27670;SDS011;15077;49.704;9.908;2022-08-05T13:54:56;2.10;;;1.50;;
27670;SDS011;15077;49.704;9.908;2022-08-05T13:57:22;1.23;;;0.90;;
27670;SDS011;15077;49.704;9.908;2022-08-05T13:59:49;1.90;;;1.45;;
27670;SDS011;15077;49.704;9.908;2022-08-05T14:02:17;1.48;;;1.38;;
27670;SDS011;15077;49.704;9.908;2022-08-05T14:04:44;1.83;;;1.45;;
27670;SDS011;15077;49.704;9.908;2022-08-05T14:09:58;1.92;;;1.65;;
27670;SDS011;15077;49.704;9.908;2022-08-05T14:12:25;1.77;;;1.42;;
27670;SDS011;15077;49.704;9.908;2022-08-05T14:14:51;3.85;;;1.70;;
27670;SDS011;15077;49.704;9.908;2022-08-05T14:17:17;2.25;;;1.52;;
27670;SDS011;15077;49.704;9.908;2022-08-05T14:19:43;1.85;;;1.40;;
27670;SDS011;15077;49.704;9.908;2022-08-05T14:22:09;1.55;;;1.23;;
27670;SDS011;15077;49.704;9.908;2022-08-05T14:24:36;1.70;;;1.10;;
27670;SDS011;15077;49.704;9.908;2022-08-05T14:27:03;1.23;;;1.13;;
27670;SDS011;15077;49.704;9.908;2022-08-05T14:29:30;1.45;;;1.10;;
27670;SDS011;15077;49.704;9.908;2022-08-05T14:31:56;2.35;;;1.20;;
27670;SDS011;15077;49.704;9.908;2022-08-05T14:34:22;2.05;;;1.20;;
27670;SDS011;15077;49.704;9.908;2022-08-05T14:36:48;3.72;;;1.48;;
27670;SDS011;15077;49.704;9.908;2022-08-05T14:39:14;1.65;;;1.30;;
27670;SDS011;15077;49.704;9.908;2022-08-05T14:41:40;3.70;;;1.60;;
27670;SDS011;15077;49.704;9.908;2022-08-05T14:44:08;1.88;;;1.50;;
27670;SDS011;15077;49.704;9.908;2022-08-05T14:46:34;1.92;;;1.38;;
27670;SDS011;15077;49.704;9.908;2022-08-05T14:49:00;1.20;;;1.00;;
27670;SDS011;15077;49.704;9.908;2022-08-05T14:51:28;1.83;;;1.48;;
27670;SDS011;15077;49.704;9.908;2022-08-05T14:53:55;2.08;;;1.40;;
27670;SDS011;15077;49.704;9.908;2022-08-05T14:56:21;3.50;;;1.73;;
27670;SDS011;15077;49.704;9.908;2022-08-05T14:58:47;2.20;;;1.95;;
27670;SDS011;15077;49.704;9.908;2022-08-05T15:01:12;2.97;;;1.98;;
27670;SDS011;15077;49.704;9.908;2022-08-05T15:03:38;1.50;;;1.40;;
27670;SDS011;15077;49.704;9.908;2022-08-05T15:06:04;2.83;;;1.80;;
27670;SDS011;15077;49.704;9.908;2022-08-05T15:08:31;3.05;;;1.60;;
27670;SDS011;15077;49.704;9.908;2022-08-05T15:10:57;2.00;;;1.50;;
27670;SDS011;15077;49.704;9.908;2022-08-05T15:13:22;3.03;;;1.90;;
27670;SDS011;15077;49.704;9.908;2022-08-05T15:15:48;2.30;;;2.10;;
27670;SDS011;15077;49.704;9.908;2022-08-05T15:18:14;1.55;;;1.42;;
27670;SDS011;15077;49.704;9.908;2022-08-05T15:20:40;2.58;;;1.75;;
27670;SDS011;15077;49.704;9.908;2022-08-05T15:23:07;3.20;;;1.80;;
27670;SDS011;15077;49.704;9.908;2022-08-05T15:25:35;2.28;;;1.70;;
27670;SDS011;15077;49.704;9.908;2022-08-05T15:28:04;2.15;;;1.65;;
27670;SDS011;15077;49.704;9.908;2022-08-05T15:30:30;1.48;;;1.30;;
27670;SDS011;15077;49.704;9.908;2022-08-05T15:32:58;2.85;;;2.25;;
27670;SDS011;15077;49.704;9.908;2022-08-05T15:35:25;2.10;;;1.90;;
27670;SDS011;15077;49.704;9.908;2022-08-05T15:37:51;3.58;;;3.20;;
27670;SDS011;15077;49.704;9.908;2022-08-05T15:40:18;5.72;;;4.68;;
27670;SDS011;15077;49.704;9.908;2022-08-05T15:42:44;4.25;;;3.45;;
27670;SDS011;15077;49.704;9.908;2022-08-05T15:45:10;2.92;;;2.30;;
27670;SDS011;15077;49.704;9.908;2022-08-05T15:47:36;2.30;;;1.90;;
27670;SDS011;15077;49.704;9.908;2022-08-05T15:50:05;1.67;;;1.58;;
27670;SDS011;15077;49.704;9.908;2022-08-05T15:52:33;2.25;;;1.80;;
27670;SDS011;15077;49.704;9.908;2022-08-05T15:55:01;1.50;;;1.40;;
27670;SDS011;15077;49.704;9.908;2022-08-05T15:57:29;2.58;;;2.00;;
27670;SDS011;15077;49.704;9.908;2022-08-05T15:59:55;1.60;;;1.50;;
27670;SDS011;15077;49.704;9.908;2022-08-05T16:02:21;1.85;;;1.40;;